Terminal Aerodrome Forecast
Issued by NWS Twin Cities, MN

Home | Current Version | Previous Version | Graphics & Text | Print | Product List | Glossary On
Versions: 1 2 3 4 5 6 7 8 9 10 11 12 13 14 15 16 17 18 19
453
FTUS43 KMPX 222339
TAFEAU
TAF
KEAU 222339Z 2300/2324 03004KT P6SM FEW050
     FM230900 00000KT 3SM BR SCT002
     FM231330 12008KT P6SM SCT035 BKN150
      TEMPO 2316/2320 4SM TSRA BKN035CB=

USA.gov is the U.S. government's official web portal to all federal, state and local government web resources and services.